Time;durP1;ratioP1;P1;durP2;ratioP2;P2;SDS_P1;SDS_P2;PMS_P1;PMS_P2;Temp;Humidity;BMP_temperature;BMP_pressure;BME280_temperature;BME280_humidity;BME280_pressure;Samples;Min_cycle;Max_cycle;Signal;HPM_P1;HPM_P2
2022/06/03 00:01:32;;;;;;;1.70;1.10;;;10.70;99.90;;;;;;5068509;28;20096;-61
2022/06/03 00:04:18;;;;;;;4.78;0.80;;;10.70;99.90;;;;;;5070652;28;20044;-66
2022/06/03 00:06:59;;;;;;;2.45;0.95;;;10.60;99.90;;;;;;5089101;28;20051;-60
2022/06/03 00:09:29;;;;;;;2.55;1.05;;;10.60;99.90;;;;;;5068246;28;20048;-59
2022/06/03 00:12:38;;;;;;;2.13;1.10;;;10.50;99.90;;;;;;5070595;28;20490;-63
2022/06/03 00:15:16;;;;;;;2.85;1.73;;;10.50;99.90;;;;;;5057829;28;20044;-63
2022/06/03 00:17:42;;;;;;;4.05;1.38;;;10.40;99.90;;;;;;5083325;28;20146;-69
2022/06/03 00:20:26;;;;;;;2.35;0.80;;;10.40;99.90;;;;;;5069792;28;20192;-63
2022/06/03 00:23:16;;;;;;;2.10;0.70;;;10.50;99.90;;;;;;5085836;28;20359;-64
2022/06/03 00:26:19;;;;;;;1.60;0.80;;;10.50;99.90;;;;;;5070807;28;20823;-69
2022/06/03 00:28:51;;;;;;;3.45;0.80;;;10.50;99.90;;;;;;5053765;28;20044;-60
2022/06/03 00:31:57;;;;;;;2.95;1.20;;;10.50;99.90;;;;;;5069767;28;20048;-62
2022/06/03 00:34:28;;;;;;;4.43;0.80;;;10.40;99.90;;;;;;5062055;28;20059;-61
2022/06/03 00:37:13;;;;;;;8.63;1.00;;;10.30;99.90;;;;;;5086874;28;20051;-71
2022/06/03 00:39:55;;;;;;;2.00;0.80;;;10.30;99.90;;;;;;5069755;28;20040;-63
2022/06/03 00:42:29;;;;;;;3.95;0.90;;;10.20;99.90;;;;;;5069699;28;20444;-64
2022/06/03 00:45:08;;;;;;;5.43;1.05;;;10.20;99.90;;;;;;5070058;28;20040;-65
2022/06/03 00:47:46;;;;;;;7.15;1.40;;;10.20;99.90;;;;;;5070124;28;20151;-69
2022/06/03 00:50:37;;;;;;;2.67;0.93;;;10.10;99.90;;;;;;5067631;28;20501;-62
2022/06/03 00:53:24;;;;;;;3.00;0.75;;;10.10;99.90;;;;;;5070156;28;20417;-63
2022/06/03 00:56:19;;;;;;;3.20;0.80;;;10.00;99.90;;;;;;5088027;28;20048;-64
2022/06/03 00:59:17;;;;;;;2.03;0.98;;;10.00;99.90;;;;;;5068092;28;20068;-65
2022/06/03 01:02:17;;;;;;;2.70;1.20;;;9.90;99.90;;;;;;5070382;28;20052;-64
2022/06/03 01:05:01;;;;;;;3.75;1.10;;;9.90;99.90;;;;;;5069648;28;20091;-70
2022/06/03 01:07:42;;;;;;;3.15;0.70;;;9.90;99.90;;;;;;5087274;28;20056;-68
2022/06/03 01:10:44;;;;;;;3.40;0.90;;;9.80;99.90;;;;;;5068005;28;20063;-60
2022/06/03 01:13:19;;;;;;;3.42;1.20;;;9.80;99.90;;;;;;5069355;28;20040;-68
2022/06/03 01:16:14;;;;;;;3.33;0.95;;;9.80;99.90;;;;;;5069430;28;20048;-63
2022/06/03 01:18:40;;;;;;;1.98;0.88;;;9.70;99.90;;;;;;5051388;28;20082;-65
2022/06/03 01:21:43;;;;;;;1.02;0.60;;;9.70;99.90;;;;;;5068542;28;20044;-61
2022/06/03 01:24:38;;;;;;;1.40;0.70;;;9.70;99.90;;;;;;5069375;28;20470;-64
2022/06/03 01:27:25;;;;;;;3.20;1.33;;;9.70;99.90;;;;;;5070005;28;20054;-61
2022/06/03 01:30:06;;;;;;;2.70;1.00;;;9.80;99.90;;;;;;5061362;28;20075;-68
2022/06/03 01:33:29;;;;;;;4.97;1.33;;;9.80;99.90;;;;;;5069358;28;20088;-66
2022/06/03 01:36:19;;;;;;;7.57;1.20;;;9.80;99.90;;;;;;4988688;28;20049;-64
2022/06/03 01:39:10;;;;;;;5.32;1.38;;;9.80;99.90;;;;;;5056744;28;20080;-62
2022/06/03 01:41:35;;;;;;;5.60;1.23;;;9.80;99.90;;;;;;5067245;28;20052;-64
2022/06/03 01:44:14;;;;;;;3.60;1.30;;;9.70;99.90;;;;;;5069175;28;20535;-63
2022/06/03 01:46:45;;;;;;;4.00;1.25;;;9.70;99.90;;;;;;5068845;28;20243;-61
2022/06/03 01:49:25;;;;;;;1.63;1.02;;;9.70;99.90;;;;;;5069215;28;20508;-63
2022/06/03 01:52:26;;;;;;;5.22;1.52;;;9.70;99.90;;;;;;5067314;28;20089;-64
2022/06/03 01:55:26;;;;;;;1.85;1.35;;;9.70;99.90;;;;;;5033389;28;20151;-63
2022/06/03 01:58:07;;;;;;;6.13;2.10;;;9.60;99.90;;;;;;5067510;28;20058;-60
2022/06/03 02:00:44;;;;;;;3.55;1.45;;;9.70;99.90;;;;;;5037930;28;20394;-62
2022/06/03 02:03:21;;;;;;;4.10;1.25;;;9.60;99.90;;;;;;5068532;28;20063;-71
2022/06/03 02:06:15;;;;;;;4.78;1.40;;;9.60;99.90;;;;;;5068876;28;20139;-61
2022/06/03 02:09:18;;;;;;;2.88;1.40;;;9.60;99.90;;;;;;5066632;28;20040;-60
2022/06/03 02:12:05;;;;;;;2.22;1.52;;;9.50;99.90;;;;;;5068793;28;20079;-67
2022/06/03 02:15:08;;;;;;;1.80;1.42;;;9.50;99.90;;;;;;5068069;28;20055;-64
2022/06/03 02:17:55;;;;;;;8.32;1.27;;;9.50;99.90;;;;;;5055390;28;20406;-68
2022/06/03 02:20:57;;;;;;;3.70;1.55;;;9.40;99.90;;;;;;5067194;28;20048;-64
2022/06/03 02:23:44;;;;;;;1.38;1.10;;;9.40;99.90;;;;;;5068159;28;20086;-60
2022/06/03 02:26:41;;;;;;;2.70;1.65;;;9.40;99.90;;;;;;5067660;28;20093;-65
2022/06/03 02:33:06;;;;;;;4.15;1.33;;;9.30;99.90;;;;;;5061462;28;20044;-62
2022/06/03 02:35:48;;;;;;;2.05;1.40;;;9.30;99.90;;;;;;5066471;28;20135;-64
2022/06/03 02:38:54;;;;;;;4.75;1.70;;;9.30;99.90;;;;;;5067630;28;20059;-71
2022/06/03 02:41:38;;;;;;;10.13;1.80;;;9.30;99.90;;;;;;5066236;28;20139;-63
2022/06/03 02:44:30;;;;;;;2.25;1.40;;;9.30;99.90;;;;;;5068047;28;20089;-60
2022/06/03 02:47:06;;;;;;;5.63;1.60;;;9.30;99.90;;;;;;5037283;28;20048;-65
2022/06/03 02:49:48;;;;;;;3.75;1.58;;;9.30;99.90;;;;;;5068118;28;20064;-64
2022/06/03 02:52:28;;;;;;;5.45;1.50;;;9.30;99.90;;;;;;5047674;28;20048;-70
2022/06/03 02:55:12;;;;;;;7.25;2.10;;;9.20;99.90;;;;;;5068118;28;20052;-70
2022/06/03 02:58:11;;;;;;;2.25;1.80;;;9.30;99.90;;;;;;5068378;28;20131;-59
2022/06/03 03:00:55;;;;;;;3.38;1.70;;;9.30;99.90;;;;;;5067474;28;20101;-60
2022/06/03 03:03:44;;;;;;;7.47;1.80;;;9.20;99.90;;;;;;5060977;28;20055;-64
2022/06/03 03:06:58;;;;;;;3.97;1.90;;;9.20;99.90;;;;;;5067871;28;20083;-64
2022/06/03 03:09:38;;;;;;;5.60;2.00;;;9.20;99.90;;;;;;5067135;28;20039;-65
2022/06/03 03:12:43;;;;;;;3.03;1.60;;;9.20;99.90;;;;;;5055578;28;20463;-62
2022/06/03 03:15:27;;;;;;;3.63;1.90;;;9.20;99.90;;;;;;5064862;28;20090;-63
2022/06/03 03:18:26;;;;;;;2.63;2.00;;;9.20;99.90;;;;;;5050880;28;20536;-60
2022/06/03 03:21:25;;;;;;;3.40;1.90;;;9.20;99.90;;;;;;5067403;28;20564;-68
2022/06/03 03:23:55;;;;;;;2.53;2.00;;;9.20;99.90;;;;;;5064204;28;20453;-69
2022/06/03 03:26:36;;;;;;;4.75;2.42;;;9.10;99.90;;;;;;5067060;28;20474;-63
2022/06/03 03:29:14;;;;;;;5.18;2.58;;;9.10;99.90;;;;;;5051314;28;20149;-60
2022/06/03 03:31:50;;;;;;;2.70;2.47;;;9.10;99.90;;;;;;5075308;28;20059;-62
2022/06/03 03:34:35;;;;;;;2.90;2.50;;;9.20;99.90;;;;;;5070123;28;20120;-67
2022/06/03 03:37:31;;;;;;;3.65;2.15;;;9.20;99.90;;;;;;5059845;28;20044;-61
2022/06/03 03:40:16;;;;;;;2.97;2.45;;;9.30;99.90;;;;;;5071386;28;20052;-62
2022/06/03 03:42:56;;;;;;;3.30;2.92;;;9.30;99.90;;;;;;5070926;28;20055;-61
2022/06/03 03:45:48;;;;;;;7.95;3.28;;;9.40;99.90;;;;;;5035163;28;20406;-63
2022/06/03 03:48:48;;;;;;;3.20;2.90;;;9.40;99.90;;;;;;5067326;28;20047;-64
2022/06/03 03:51:33;;;;;;;5.80;2.80;;;9.40;99.90;;;;;;5071780;28;20070;-61
2022/06/03 03:54:18;;;;;;;5.00;2.78;;;9.50;99.90;;;;;;5071078;28;20056;-69
2022/06/03 03:57:20;;;;;;;5.88;2.80;;;9.60;99.90;;;;;;5058120;28;20422;-63
2022/06/03 04:00:18;;;;;;;5.28;3.17;;;9.60;99.90;;;;;;5070985;28;20618;-61
2022/06/03 04:02:54;;;;;;;4.25;3.10;;;9.80;99.90;;;;;;5070407;28;20109;-69
2022/06/03 04:05:51;;;;;;;5.25;3.17;;;9.80;99.90;;;;;;5070338;28;20051;-64
2022/06/03 04:08:35;;;;;;;5.63;3.13;;;9.90;99.90;;;;;;5071033;28;20454;-65
2022/06/03 04:11:36;;;;;;;6.72;3.22;;;10.00;99.90;;;;;;5068968;28;20398;-70
2022/06/03 04:14:30;;;;;;;4.68;3.15;;;10.00;99.90;;;;;;4973665;28;20053;-63
2022/06/03 04:17:08;;;;;;;3.65;2.90;;;10.10;99.90;;;;;;5035817;28;20061;-68
2022/06/03 04:20:22;;;;;;;4.63;3.00;;;10.20;99.90;;;;;;5070084;28;20074;-61
2022/06/03 04:23:20;;;;;;;8.40;3.00;;;10.30;99.90;;;;;;5017620;28;20052;-63
2022/06/03 04:26:07;;;;;;;7.85;3.00;;;10.50;99.90;;;;;;5070587;28;20052;-62
2022/06/03 04:28:57;;;;;;;5.05;2.65;;;10.50;99.90;;;;;;5059815;28;20056;-61
2022/06/03 04:31:54;;;;;;;5.03;3.17;;;10.60;99.90;;;;;;5053036;28;20055;-70
2022/06/03 04:34:38;;;;;;;5.97;3.00;;;10.70;99.90;;;;;;5070352;28;20055;-61
2022/06/03 04:37:28;;;;;;;6.43;3.17;;;10.80;99.90;;;;;;5068697;28;20556;-65
2022/06/03 04:40:04;;;;;;;7.50;3.33;;;10.90;99.90;;;;;;5068678;28;20076;-67
2022/06/03 04:42:48;;;;;;;7.80;3.63;;;11.00;99.90;;;;;;5069503;28;20048;-65
2022/06/03 04:45:46;;;;;;;5.20;3.20;;;11.00;99.90;;;;;;5054324;28;20051;-65
2022/06/03 04:48:49;;;;;;;4.03;3.45;;;11.10;99.90;;;;;;5049677;28;20055;-60
2022/06/03 04:51:30;;;;;;;4.30;3.17;;;11.20;99.90;;;;;;5064071;28;20058;-66
2022/06/03 04:54:15;;;;;;;9.02;3.85;;;11.20;99.90;;;;;;5056987;28;20060;-67
2022/06/03 04:57:19;;;;;;;3.30;3.00;;;11.30;99.90;;;;;;5063683;28;20402;-67
2022/06/03 05:00:11;;;;;;;5.72;2.63;;;11.30;99.90;;;;;;4997055;28;20099;-61
2022/06/03 05:03:12;;;;;;;3.20;2.92;;;11.50;99.90;;;;;;5047833;28;20048;-67
2022/06/03 05:06:18;;;;;;;6.97;3.20;;;11.70;99.90;;;;;;5069157;28;20056;-60
2022/06/03 05:09:15;;;;;;;4.60;2.97;;;12.30;99.90;;;;;;5069228;28;20044;-60
2022/06/03 05:12:21;;;;;;;4.93;3.05;;;12.40;99.90;;;;;;5058986;28;20047;-64
2022/06/03 05:15:25;;;;;;;6.82;2.88;;;12.40;99.90;;;;;;5069353;28;20051;-68
2022/06/03 05:18:21;;;;;;;6.05;3.13;;;12.30;99.90;;;;;;5057585;28;21056;-64
2022/06/03 05:20:59;;;;;;;6.45;3.22;;;12.20;99.90;;;;;;5064219;28;20082;-67
2022/06/03 05:23:45;;;;;;;8.35;2.45;;;12.20;99.90;;;;;;5069742;28;20055;-63
2022/06/03 05:26:35;;;;;;;9.35;3.20;;;12.10;99.90;;;;;;5022267;28;20048;-69
2022/06/03 05:29:42;;;;;;;4.97;3.05;;;12.40;99.90;;;;;;5067597;28;20052;-63
2022/06/03 05:33:03;;;;;;;6.10;3.10;;;12.50;99.90;;;;;;5029306;28;20494;-59
2022/06/03 05:35:40;;;;;;;;;;;12.50;99.90;;;;;;5001408;28;20057;-64
2022/06/03 05:38:43;;;;;;;6.13;3.20;;;12.50;99.90;;;;;;5044829;28;19924;-64
2022/06/03 05:44:18;;;;;;;8.00;2.60;;;13.20;99.90;;;;;;5068721;28;20827;-69
2022/06/03 05:46:59;;;;;;;6.57;3.10;;;13.10;99.90;;;;;;5052080;28;20098;-64
2022/06/03 05:49:46;;;;;;;7.15;3.15;;;13.00;99.90;;;;;;5064323;28;20124;-64
2022/06/03 05:52:33;;;;;;;4.57;2.78;;;12.90;99.90;;;;;;5060891;28;20052;-62
2022/06/03 05:55:23;;;;;;;5.55;3.67;;;12.80;99.90;;;;;;5063752;28;20066;-69
2022/06/03 05:57:51;;;;;;;5.55;3.22;;;12.90;99.90;;;;;;5061254;28;20086;-71
2022/06/03 06:00:26;;;;;;;6.65;3.22;;;12.90;99.90;;;;;;5066990;28;20082;-61
2022/06/03 06:03:19;;;;;;;3.38;3.10;;;12.90;99.90;;;;;;5067124;28;20055;-61
2022/06/03 06:05:55;;;;;;;6.63;3.40;;;12.80;99.90;;;;;;5060887;28;20153;-63
2022/06/03 06:08:20;;;;;;;9.38;3.80;;;12.90;99.90;;;;;;5068081;28;20048;-59
2022/06/03 06:11:16;;;;;;;5.43;3.38;;;12.90;99.90;;;;;;5048455;28;20596;-66
2022/06/03 06:13:51;;;;;;;7.18;3.25;;;13.00;99.90;;;;;;5068221;28;20051;-64
2022/06/03 06:16:37;;;;;;;7.50;3.50;;;13.00;99.90;;;;;;5062007;28;20107;-67
2022/06/03 06:19:06;;;;;;;4.20;3.00;;;13.00;99.90;;;;;;5063853;28;21003;-67
2022/06/03 06:22:07;;;;;;;3.95;3.05;;;13.00;99.90;;;;;;5067669;28;20123;-65
2022/06/03 06:24:51;;;;;;;8.30;3.45;;;13.10;99.90;;;;;;5046118;28;20097;-60
2022/06/03 06:27:49;;;;;;;5.15;3.10;;;13.20;99.90;;;;;;5051984;28;20059;-60
2022/06/03 06:30:33;;;;;;;8.60;3.75;;;13.30;99.90;;;;;;5059488;28;20409;-62
2022/06/03 06:33:11;;;;;;;5.15;3.42;;;13.40;99.90;;;;;;5049282;28;20052;-66
2022/06/03 06:35:58;;;;;;;8.60;4.03;;;13.40;99.90;;;;;;5057830;28;20059;-62
2022/06/03 06:38:47;;;;;;;7.05;3.00;;;13.40;99.90;;;;;;5085659;28;20433;-59
2022/06/03 06:41:31;;;;;;;6.40;3.67;;;13.50;99.90;;;;;;5050397;28;20139;-63
2022/06/03 06:44:38;;;;;;;7.38;3.30;;;13.50;99.90;;;;;;5058354;28;20070;-65
2022/06/03 06:47:18;;;;;;;5.22;3.20;;;13.70;99.90;;;;;;4979756;28;20554;-62
2022/06/03 06:49:50;;;;;;;5.18;2.90;;;13.80;99.90;;;;;;5067164;28;20055;-63
2022/06/03 06:52:40;;;;;;;10.63;2.90;;;14.00;99.90;;;;;;5068241;28;20054;-64
2022/06/03 06:55:06;;;;;;;;;;;14.10;99.90;;;;;;5066276;28;20131;-59
2022/06/03 06:57:36;;;;;;;3.78;2.55;;;14.20;99.90;;;;;;5067730;28;20011;-61
2022/06/03 07:00:24;;;;;;;5.32;2.50;;;14.40;99.90;;;;;;5086213;28;20406;-60
2022/06/03 07:03:27;;;;;;;7.45;2.42;;;14.50;99.90;;;;;;5083504;28;20410;-62
2022/06/03 07:06:01;;;;;;;2.95;2.10;;;14.70;93.80;;;;;;5077311;28;20052;-61
2022/06/03 07:08:38;;;;;;;2.25;2.00;;;14.90;96.00;;;;;;5072576;28;20054;-66
2022/06/03 07:11:10;;;;;;;3.67;2.20;;;15.10;94.30;;;;;;5069929;28;20522;-60
2022/06/03 07:13:45;;;;;;;5.47;2.00;;;15.30;90.60;;;;;;5069884;28;20101;-72
2022/06/03 07:19:48;;;;;;;4.90;2.03;;;15.90;78.90;;;;;;5062990;28;20047;-61
2022/06/03 07:22:31;;;;;;;4.57;2.17;;;16.30;72.30;;;;;;5074441;28;20040;-64
2022/06/03 07:25:02;;;;;;;4.53;1.70;;;16.60;69.70;;;;;;5067860;28;20060;-63
2022/06/03 07:27:43;;;;;;;3.47;1.85;;;16.80;66.20;;;;;;5068356;28;20505;-64
2022/06/03 07:30:11;;;;;;;6.20;1.80;;;17.00;61.90;;;;;;5070144;28;20044;-60
2022/06/03 07:32:51;;;;;;;2.25;2.05;;;17.30;60.40;;;;;;5073849;28;20044;-67
2022/06/03 07:35:26;;;;;;;7.25;2.00;;;17.50;55.80;;;;;;5070094;28;20104;-63
2022/06/03 07:38:02;;;;;;;5.00;2.45;;;17.50;52.20;;;;;;5073387;28;20055;-62
2022/06/03 07:40:40;;;;;;;1.98;1.80;;;17.60;58.60;;;;;;5073507;28;20067;-61
2022/06/03 07:43:28;;;;;;;3.88;2.33;;;17.70;58.00;;;;;;5092189;28;20151;-65
2022/06/03 07:46:05;;;;;;;3.58;2.00;;;18.00;56.70;;;;;;5070391;28;20496;-61
2022/06/03 07:48:33;;;;;;;5.00;2.33;;;18.20;64.50;;;;;;5087516;28;20044;-69
2022/06/03 07:51:25;;;;;;;4.22;1.80;;;18.30;49.20;;;;;;5072005;28;20048;-69
2022/06/03 07:53:57;;;;;;;4.32;1.88;;;18.20;54.80;;;;;;5068056;28;20060;-69
2022/06/03 07:56:26;;;;;;;1.92;1.83;;;18.40;54.50;;;;;;5070659;28;20537;-59
2022/06/03 07:58:57;;;;;;;5.13;1.50;;;18.30;43.30;;;;;;5073192;28;20052;-66
2022/06/03 08:01:31;;;;;;;1.73;1.63;;;18.30;47.40;;;;;;5056549;28;20052;-69
2022/06/03 08:03:57;;;;;;;8.95;1.77;;;18.40;50.80;;;;;;5068926;28;20135;-60
2022/06/03 08:12:14;;;;;;;6.25;2.00;;;18.50;43.80;;;;;;5073697;28;20048;-63
2022/06/03 08:14:40;;;;;;;2.88;1.50;;;18.50;38.00;;;;;;5060709;28;20402;-66
2022/06/03 08:17:09;;;;;;;2.33;1.67;;;18.50;39.70;;;;;;5086594;28;20312;-67
2022/06/03 08:19:37;;;;;;;1.17;1.10;;;18.70;49.20;;;;;;5067318;28;20081;-68
2022/06/03 08:22:08;;;;;;;2.15;1.02;;;19.00;40.90;;;;;;5066204;28;20261;-63
2022/06/03 08:24:43;;;;;;;1.17;0.80;;;19.10;30.10;;;;;;5067185;28;20398;-62
2022/06/03 08:27:20;;;;;;;12.02;1.13;;;19.00;27.30;;;;;;5050173;28;20044;-64
2022/06/03 08:29:55;;;;;;;1.55;1.08;;;19.10;32.50;;;;;;5083487;28;20051;-65
2022/06/03 08:32:38;;;;;;;8.18;1.48;;;19.10;27.50;;;;;;5057587;28;20110;-68
2022/06/03 08:35:14;;;;;;;4.30;1.33;;;19.10;33.20;;;;;;5069730;28;20458;-68
2022/06/03 08:37:52;;;;;;;3.45;1.13;;;19.30;36.80;;;;;;5084183;28;20123;-57
2022/06/03 08:40:39;;;;;;;2.53;1.00;;;19.30;31.00;;;;;;5075257;28;20090;-65
2022/06/03 08:43:53;;;;;;;3.70;1.40;;;19.50;30.00;;;;;;5063690;28;20517;-62
2022/06/03 08:46:28;;;;;;;3.60;1.35;;;19.70;28.10;;;;;;5064069;28;20810;-63
2022/06/03 08:49:01;;;;;;;3.70;1.20;;;19.90;28.10;;;;;;5064827;28;20397;-60
2022/06/03 08:51:40;;;;;;;3.47;1.20;;;19.70;20.00;;;;;;5063312;28;20052;-70
2022/06/03 08:54:27;;;;;;;2.78;1.00;;;19.40;20.90;;;;;;5047494;28;20473;-62
2022/06/03 08:57:02;;;;;;;3.35;0.98;;;19.20;23.80;;;;;;5062960;28;20139;-67
2022/06/03 08:59:36;;;;;;;1.13;1.02;;;19.30;28.00;;;;;;5040218;28;20043;-67
2022/06/03 09:02:13;;;;;;;1.33;0.90;;;19.60;29.80;;;;;;5063343;28;20056;-63
2022/06/03 09:04:49;;;;;;;3.28;1.63;;;19.80;28.70;;;;;;5066387;28;20059;-59
2022/06/03 09:07:29;;;;;;;3.15;0.93;;;19.80;27.40;;;;;;5062507;28;20582;-67
2022/06/03 09:10:14;;;;;;;7.22;1.10;;;19.70;19.90;;;;;;5062417;28;20055;-63
2022/06/03 09:13:05;;;;;;;1.02;0.90;;;19.60;21.90;;;;;;5066394;28;20123;-63
2022/06/03 09:15:39;;;;;;;4.10;0.95;;;19.40;18.60;;;;;;5069051;28;20127;-68
2022/06/03 09:18:37;;;;;;;2.03;1.13;;;19.30;18.90;;;;;;5082635;28;20036;-59
2022/06/03 09:21:13;;;;;;;1.30;0.77;;;19.40;21.30;;;;;;5047501;28;20175;-64
2022/06/03 09:23:47;;;;;;;2.17;0.80;;;19.50;18.30;;;;;;5051445;28;20529;-66
2022/06/03 09:26:24;;;;;;;2.72;1.00;;;19.50;26.00;;;;;;5084994;28;20078;-63
2022/06/03 09:28:50;;;;;;;1.30;0.70;;;19.40;18.00;;;;;;5068069;28;20486;-62
2022/06/03 09:31:17;;;;;;;2.58;0.80;;;19.50;23.20;;;;;;5043399;28;20075;-60
2022/06/03 09:33:45;;;;;;;1.05;0.88;;;19.60;24.70;;;;;;5066962;28;20405;-68
2022/06/03 09:36:15;;;;;;;1.33;0.80;;;19.60;20.80;;;;;;5049341;28;20501;-63
2022/06/03 09:39:12;;;;;;;3.28;0.90;;;19.80;18.90;;;;;;5067690;28;20066;-64
2022/06/03 09:41:44;;;;;;;1.75;0.73;;;20.00;20.10;;;;;;5066341;28;20105;-67
2022/06/03 09:44:13;;;;;;;2.80;0.73;;;20.10;22.80;;;;;;5067288;28;20401;-68
2022/06/03 09:46:41;;;;;;;0.77;0.77;;;20.20;23.10;;;;;;5046088;28;20695;-67
2022/06/03 09:49:08;;;;;;;2.10;0.70;;;20.30;17.00;;;;;;5066493;28;20048;-65
2022/06/03 09:51:55;;;;;;;0.68;0.50;;;20.30;23.80;;;;;;5048540;28;20075;-60
2022/06/03 09:54:29;;;;;;;2.47;0.77;;;20.30;16.50;;;;;;5062629;28;20391;-61
2022/06/03 09:57:04;;;;;;;5.70;0.85;;;20.30;18.60;;;;;;5047262;28;20049;-66
2022/06/03 09:59:33;;;;;;;5.15;0.50;;;20.10;13.70;;;;;;5067050;28;20051;-67
2022/06/03 10:01:59;;;;;;;2.50;1.02;;;20.20;13.00;;;;;;5065168;28;20059;-67
2022/06/03 10:04:24;;;;;;;1.77;0.85;;;20.00;13.00;;;;;;5084510;28;20044;-61
2022/06/03 10:06:51;;;;;;;3.67;1.02;;;20.00;19.00;;;;;;5049738;28;20052;-63
2022/06/03 10:17:46;;;;;;;5.00;0.80;;;20.00;13.10;;;;;;5067664;28;20463;-65
2022/06/03 10:20:12;;;;;;;3.60;0.88;;;20.00;24.50;;;;;;5048899;28;20050;-61
2022/06/03 10:22:38;;;;;;;1.75;0.82;;;20.30;19.10;;;;;;5048536;28;20474;-60
2022/06/03 10:25:05;;;;;;;1.67;0.73;;;20.30;16.10;;;;;;5062092;28;20077;-63
2022/06/03 10:27:32;;;;;;;2.05;0.90;;;20.20;14.40;;;;;;5049811;28;20066;-66
2022/06/03 10:29:59;;;;;;;1.42;0.63;;;20.00;17.00;;;;;;5049550;28;20051;-63
2022/06/03 10:32:26;;;;;;;2.45;0.80;;;20.10;19.90;;;;;;5062932;28;20115;-64
2022/06/03 10:35:03;;;;;;;1.52;1.00;;;20.10;22.70;;;;;;5067143;28;20048;-62
2022/06/03 10:37:29;;;;;;;1.02;0.70;;;20.10;13.40;;;;;;5065687;28;20128;-60
2022/06/03 10:39:56;;;;;;;4.07;0.90;;;20.10;12.70;;;;;;5063015;28;20477;-70
2022/06/03 10:42:23;;;;;;;2.80;0.77;;;20.20;19.50;;;;;;5061805;28;20083;-66
2022/06/03 10:44:58;;;;;;;2.30;0.82;;;20.30;15.90;;;;;;5065056;28;20467;-61
2022/06/03 10:47:36;;;;;;;2.05;1.02;;;20.70;20.20;;;;;;5066290;28;20048;-64
2022/06/03 10:50:28;;;;;;;1.95;0.77;;;20.80;15.50;;;;;;5063379;28;20445;-64
2022/06/03 11:01:51;;;;;;;1.70;0.80;;;20.40;18.40;;;;;;5064251;28;20144;-59
2022/06/03 11:04:31;;;;;;;2.27;0.90;;;20.60;13.30;;;;;;5066131;28;20044;-62
2022/06/03 11:07:03;;;;;;;0.82;0.57;;;20.60;12.50;;;;;;5084319;28;20132;-64
2022/06/03 11:09:29;;;;;;;3.05;0.90;;;20.50;15.60;;;;;;5063996;28;20526;-60
2022/06/03 11:11:58;;;;;;;0.98;0.60;;;20.50;15.90;;;;;;5051755;28;20052;-62
2022/06/03 11:14:40;;;;;;;1.88;0.60;;;20.50;11.80;;;;;;5084276;28;20047;-67
2022/06/03 11:17:18;;;;;;;1.70;0.65;;;20.40;12.80;;;;;;5067598;28;20044;-60
2022/06/03 11:19:48;;;;;;;0.80;0.80;;;20.40;17.00;;;;;;5068072;28;20054;-66
2022/06/03 11:22:24;;;;;;;3.15;0.80;;;20.70;18.30;;;;;;5067172;28;20052;-59
2022/06/03 11:24:53;;;;;;;3.80;1.00;;;20.80;14.30;;;;;;5080766;28;20089;-59
2022/06/03 11:27:24;;;;;;;2.47;0.80;;;20.90;12.50;;;;;;5065257;28;20048;-68
2022/06/03 11:29:52;;;;;;;4.75;0.80;;;20.70;12.00;;;;;;5085155;28;20032;-66
2022/06/03 11:32:18;;;;;;;3.70;0.90;;;20.60;11.60;;;;;;5067634;28;20106;-65
2022/06/03 11:35:00;;;;;;;1.98;0.75;;;20.50;10.20;;;;;;5065833;28;20051;-65
2022/06/03 11:37:31;;;;;;;2.83;0.95;;;20.50;9.40;;;;;;5059510;28;20097;-59
2022/06/03 11:40:15;;;;;;;1.98;0.77;;;20.60;13.30;;;;;;5068004;28;20039;-59
2022/06/03 11:42:51;;;;;;;3.45;0.60;;;20.70;11.80;;;;;;5085405;28;20051;-63
2022/06/03 11:45:19;;;;;;;0.55;0.55;;;20.80;11.60;;;;;;5066136;28;20048;-62
2022/06/03 11:48:05;;;;;;;0.70;0.70;;;20.70;7.40;;;;;;5059885;28;20502;-58
2022/06/03 11:50:33;;;;;;;1.90;0.80;;;20.50;9.30;;;;;;5067860;28;20059;-66
2022/06/03 11:52:59;;;;;;;4.00;0.90;;;20.40;13.80;;;;;;5069914;28;20055;-60
2022/06/03 11:55:28;;;;;;;2.00;1.05;;;20.40;10.70;;;;;;5088862;28;20056;-64
2022/06/03 11:58:05;;;;;;;1.38;0.70;;;20.30;13.70;;;;;;5069132;28;20047;-66
2022/06/03 12:00:36;;;;;;;1.25;0.63;;;20.40;15.90;;;;;;5070848;28;20143;-60
2022/06/03 12:03:31;;;;;;;1.13;0.40;;;20.40;8.50;;;;;;5071174;28;20482;-65
2022/06/03 12:06:16;;;;;;;4.68;0.80;;;20.50;16.00;;;;;;5054396;28;20055;-60
2022/06/03 12:08:53;;;;;;;1.15;0.77;;;20.60;7.00;;;;;;5067581;28;20505;-63
2022/06/03 12:14:45;;;;;;;1.42;0.60;;;20.80;12.10;;;;;;5062688;28;20486;-66
2022/06/03 12:17:13;;;;;;;0.50;0.50;;;20.80;8.90;;;;;;5086885;28;20047;-59
2022/06/03 12:19:43;;;;;;;0.73;0.70;;;20.70;9.30;;;;;;5070715;28;20410;-67
2022/06/03 12:22:28;;;;;;;1.10;0.73;;;20.60;9.70;;;;;;5070310;28;20109;-62
2022/06/03 12:24:56;;;;;;;2.78;0.55;;;20.50;11.70;;;;;;5070486;28;20064;-64
2022/06/03 12:27:27;;;;;;;1.00;0.50;;;20.60;15.00;;;;;;5087613;28;20183;-63
2022/06/03 12:30:04;;;;;;;0.93;0.57;;;20.60;8.60;;;;;;5070103;28;20051;-62
2022/06/03 12:32:32;;;;;;;1.00;0.60;;;20.50;7.30;;;;;;5070074;28;20632;-61
2022/06/03 12:35:36;;;;;;;2.25;0.60;;;20.50;9.30;;;;;;5088168;28;20112;-59
2022/06/03 12:38:27;;;;;;;0.63;0.60;;;20.60;11.00;;;;;;5069314;28;20105;-66
2022/06/03 12:40:59;;;;;;;0.80;0.47;;;20.80;7.60;;;;;;5084190;28;20752;-59
2022/06/03 12:43:46;;;;;;;0.90;0.50;;;20.70;9.60;;;;;;5052522;28;20055;-59
2022/06/03 12:46:37;;;;;;;0.65;0.40;;;20.70;6.10;;;;;;5070466;28;20574;-58
2022/06/03 12:49:16;;;;;;;1.85;0.60;;;20.50;7.30;;;;;;5086265;28;20082;-61
2022/06/03 12:52:07;;;;;;;3.30;0.77;;;20.50;8.00;;;;;;5069832;28;20040;-60
2022/06/03 12:54:37;;;;;;;0.57;0.40;;;20.60;13.50;;;;;;5069970;28;20109;-59
2022/06/03 12:57:09;;;;;;;1.10;0.85;;;20.70;10.00;;;;;;5070033;28;20056;-63
2022/06/03 13:00:07;;;;;;;1.10;0.40;;;20.70;7.60;;;;;;5086985;28;20059;-70
2022/06/03 13:02:47;;;;;;;1.35;0.50;;;20.70;10.70;;;;;;5063672;28;20040;-59
2022/06/03 13:05:25;;;;;;;1.10;0.50;;;20.40;9.40;;;;;;5068997;28;20079;-63
2022/06/03 13:07:58;;;;;;;0.90;0.50;;;20.40;11.30;;;;;;5070373;28;20052;-68
2022/06/03 13:10:26;;;;;;;0.73;0.38;;;20.50;13.60;;;;;;5080940;28;20055;-65
2022/06/03 13:12:54;;;;;;;4.00;0.55;;;20.50;13.70;;;;;;5069351;28;20056;-64
2022/06/03 13:15:20;;;;;;;1.83;0.65;;;20.60;13.10;;;;;;5069465;28;20114;-66
2022/06/03 13:18:20;;;;;;;4.07;0.85;;;20.50;17.30;;;;;;5087878;28;20553;-60
2022/06/03 13:20:56;;;;;;;0.75;0.63;;;20.40;12.80;;;;;;5066142;28;20159;-61
2022/06/03 13:23:53;;;;;;;1.90;0.85;;;20.30;14.70;;;;;;5069239;28;20052;-60
2022/06/03 13:26:22;;;;;;;3.08;0.50;;;20.10;14.10;;;;;;5064964;28;20080;-68
2022/06/03 13:28:48;;;;;;;2.67;0.60;;;20.10;13.20;;;;;;5060351;28;20052;-64
2022/06/03 13:31:21;;;;;;;0.70;0.50;;;20.10;17.90;;;;;;5065989;28;20036;-66
2022/06/03 13:34:15;;;;;;;3.15;1.13;;;20.20;19.20;;;;;;5069641;28;20103;-67
2022/06/03 13:36:46;;;;;;;2.05;0.57;;;20.20;17.00;;;;;;5087451;28;20047;-63
2022/06/03 13:39:32;;;;;;;2.72;0.65;;;20.00;12.00;;;;;;5069156;28;20040;-60
2022/06/03 13:45:01;;;;;;;1.73;0.50;;;19.20;15.10;;;;;;5068449;28;20048;-60
2022/06/03 13:47:28;;;;;;;3.07;0.50;;;19.20;15.90;;;;;;5087248;28;20048;-60
2022/06/03 13:50:12;;;;;;;1.80;0.70;;;19.20;21.20;;;;;;5069137;28;20130;-63
2022/06/03 13:52:45;;;;;;;1.27;0.47;;;19.30;14.90;;;;;;5062091;28;20045;-61
2022/06/03 13:55:32;;;;;;;2.58;0.75;;;19.20;16.10;;;;;;5067057;28;20615;-68
2022/06/03 13:58:23;;;;;;;1.08;0.50;;;19.30;12.20;;;;;;5068603;28;20059;-59
2022/06/03 14:00:49;;;;;;;2.28;0.40;;;19.10;13.90;;;;;;5056894;28;20131;-66
2022/06/03 14:03:22;;;;;;;1.33;0.35;;;19.10;14.00;;;;;;5060403;28;20183;-60
2022/06/03 14:05:50;;;;;;;2.67;0.60;;;19.20;15.70;;;;;;5086471;28;20410;-64
2022/06/03 14:08:41;;;;;;;1.05;0.55;;;19.30;15.20;;;;;;5052362;28;20048;-67
2022/06/03 14:11:16;;;;;;;0.55;0.40;;;19.10;12.90;;;;;;5051710;28;20944;-60
2022/06/03 14:14:06;;;;;;;1.20;0.50;;;19.00;13.40;;;;;;5066756;28;20100;-63
2022/06/03 14:17:01;;;;;;;1.60;0.68;;;18.90;13.90;;;;;;5055857;28;20071;-61
2022/06/03 14:19:29;;;;;;;4.13;1.02;;;18.90;14.10;;;;;;5067874;28;20048;-61
2022/06/03 14:21:57;;;;;;;0.88;0.30;;;18.90;14.70;;;;;;5086809;28;20127;-65
2022/06/03 14:24:32;;;;;;;1.02;0.50;;;18.80;15.10;;;;;;5078633;28;20047;-59
2022/06/03 14:27:06;;;;;;;4.65;0.80;;;18.70;11.40;;;;;;5068490;28;20116;-61
2022/06/03 14:29:49;;;;;;;3.70;0.75;;;18.60;14.80;;;;;;5068380;28;20050;-58
2022/06/03 14:32:20;;;;;;;2.35;0.77;;;18.50;17.70;;;;;;5085918;28;20513;-65
2022/06/03 14:35:00;;;;;;;1.30;0.50;;;18.60;16.70;;;;;;5062226;28;20036;-59
2022/06/03 14:37:43;;;;;;;2.70;0.65;;;18.60;19.70;;;;;;5051223;28;20052;-58
2022/06/03 14:40:15;;;;;;;0.73;0.40;;;18.70;14.50;;;;;;5068099;28;20056;-63
2022/06/03 14:42:41;;;;;;;2.80;0.70;;;18.70;11.90;;;;;;5064070;28;20040;-62
2022/06/03 14:45:13;;;;;;;0.95;0.40;;;18.70;13.70;;;;;;5042092;28;20406;-71